Time;durP1;ratioP1;P1;durP2;ratioP2;P2;SDS_P1;SDS_P2;PMS_P1;PMS_P2;Temp;Humidity;BMP_temperature;BMP_pressure;BME280_temperature;BME280_humidity;BME280_pressure;Samples;Min_cycle;Max_cycle;Signal;HPM_P1;HPM_P2
2023/08/16 00:01:13;;;;;;;9.55;4.63;;;;;;;29.27;48.29;98835.78;4844399;29;20197;-87
2023/08/16 00:03:40;;;;;;;7.70;4.10;;;;;;;29.22;49.05;98841.78;4844248;29;20182;-87
2023/08/16 00:06:10;;;;;;;8.40;3.75;;;;;;;29.18;49.52;98831.59;4844251;29;20177;-87
2023/08/16 00:08:37;;;;;;;11.40;4.47;;;;;;;29.25;48.74;98824.34;4844619;29;20192;-87
2023/08/16 00:11:04;;;;;;;11.25;4.10;;;;;;;29.31;48.30;98828.91;4828659;29;20212;-86
2023/08/16 00:13:34;;;;;;;12.05;4.40;;;;;;;29.30;48.39;98829.94;4843962;29;20204;-87
2023/08/16 00:16:01;;;;;;;7.20;3.67;;;;;;;29.32;48.25;98827.91;4844315;29;20212;-87
2023/08/16 00:18:29;;;;;;;10.80;4.80;;;;;;;29.31;48.42;98830.78;4827014;29;20205;-87
2023/08/16 00:20:55;;;;;;;7.88;4.22;;;;;;;29.26;48.68;98826.00;4844296;29;20192;-87
2023/08/16 00:23:22;;;;;;;10.18;4.13;;;;;;;29.20;48.87;98824.09;4844091;29;20193;-87
2023/08/16 00:25:48;;;;;;;10.18;3.92;;;;;;;29.18;49.26;98820.78;4843804;29;20185;-87
2023/08/16 00:28:15;;;;;;;11.90;4.50;;;;;;;29.07;49.39;98822.22;4843598;29;20193;-87
2023/08/16 00:30:41;;;;;;;10.73;3.97;;;;;;;29.02;49.93;98829.28;4843639;29;20213;-87
2023/08/16 00:33:08;;;;;;;8.65;3.45;;;;;;;28.98;50.48;98819.94;4843655;29;20275;-87
2023/08/16 00:35:36;;;;;;;8.20;4.20;;;;;;;28.93;50.26;98815.13;4843793;29;20220;-86
2023/08/16 00:38:03;;;;;;;8.38;4.68;;;;;;;28.78;50.97;98814.50;4844073;29;20512;-87
2023/08/16 00:40:30;;;;;;;7.18;3.65;;;;;;;28.74;51.15;98823.22;4827549;29;20616;-86
2023/08/16 00:42:56;;;;;;;6.95;4.28;;;;;;;28.66;51.32;98823.38;4827387;29;20204;-87
2023/08/16 00:45:22;;;;;;;11.48;4.28;;;;;;;28.62;51.73;98826.50;4827589;29;20715;-86
2023/08/16 00:47:48;;;;;;;9.88;4.18;;;;;;;28.55;52.07;98830.16;4827341;29;20215;-87
2023/08/16 00:50:15;;;;;;;6.80;3.95;;;;;;;28.55;51.36;98830.16;4827174;29;20216;-87
2023/08/16 00:52:41;;;;;;;9.63;4.60;;;;;;;28.65;50.84;98833.34;4843243;29;20637;-87
2023/08/16 00:55:08;;;;;;;11.35;4.40;;;;;;;28.69;50.16;98831.06;4843486;29;20181;-86
2023/08/16 00:57:34;;;;;;;14.98;4.65;;;;;;;28.70;49.70;98833.56;4843484;29;20184;-87
2023/08/16 01:00:01;;;;;;;7.10;4.00;;;;;;;28.69;49.20;98834.63;4827162;29;20180;-86
2023/08/16 01:02:26;;;;;;;8.07;3.80;;;;;;;28.63;49.35;98833.56;4843660;29;20237;-87
2023/08/16 01:04:55;;;;;;;10.48;4.43;;;;;;;28.52;49.95;98836.81;4843359;29;20197;-86
2023/08/16 01:07:20;;;;;;;7.82;3.55;;;;;;;28.37;50.48;98840.69;4843080;29;20173;-86
2023/08/16 01:09:47;;;;;;;8.65;4.35;;;;;;;28.41;50.55;98837.38;4843590;29;20241;-85
2023/08/16 01:12:21;;;;;;;9.75;4.10;;;;;;;28.48;50.35;98835.56;4843249;29;20291;-86
2023/08/16 01:14:56;;;;;;;6.35;3.88;;;;;;;28.49;50.06;98839.91;4827040;29;20204;-86
2023/08/16 01:17:24;;;;;;;9.45;4.15;;;;;;;28.46;49.79;98837.59;4829438;29;20253;-86
2023/08/16 01:19:55;;;;;;;6.95;4.40;;;;;;;28.41;49.81;98834.69;4825918;29;20240;-86
2023/08/16 01:22:28;;;;;;;9.57;4.10;;;;;;;28.33;49.68;98847.53;4825402;29;20250;-86
2023/08/16 01:25:21;;;;;;;12.07;5.13;;;;;;;28.25;50.16;98845.78;4841493;29;20169;-86
2023/08/16 01:27:51;;;;;;;15.75;4.55;;;;;;;28.17;50.50;98831.69;4842769;29;20177;-86
2023/08/16 01:30:20;;;;;;;11.57;4.18;;;;;;;28.14;50.86;98841.00;4838302;29;20220;-87
2023/08/16 01:32:47;;;;;;;8.48;4.35;;;;;;;28.08;50.85;98839.09;4832441;29;20185;-87
2023/08/16 01:35:15;;;;;;;8.40;3.90;;;;;;;28.02;51.39;98834.47;4825276;29;20664;-86
2023/08/16 01:37:43;;;;;;;9.23;4.78;;;;;;;27.93;51.94;98838.34;4842944;29;20180;-86
2023/08/16 01:40:10;;;;;;;8.93;4.13;;;;;;;27.83;52.44;98849.47;4826495;29;20253;-86
2023/08/16 01:42:47;;;;;;;7.15;3.97;;;;;;;27.78;52.59;98838.44;4826585;29;20188;-86
2023/08/16 01:45:18;;;;;;;7.13;4.32;;;;;;;27.72;52.92;98849.19;4842868;29;20177;-86
2023/08/16 01:47:46;;;;;;;10.60;5.10;;;;;;;27.53;54.08;98857.94;4842412;29;20334;-86
2023/08/16 01:50:14;;;;;;;11.67;5.27;;;;;;;27.38;54.49;98852.63;4841181;29;20662;-85
2023/08/16 01:52:41;;;;;;;14.40;4.93;;;;;;;27.22;55.19;98842.97;4840535;29;20181;-86
2023/08/16 01:55:08;;;;;;;8.93;4.80;;;;;;;27.21;55.44;98845.84;4840499;29;20188;-86
2023/08/16 01:57:34;;;;;;;11.30;5.80;;;;;;;27.21;55.10;98845.84;4840480;29;20184;-85
2023/08/16 02:00:01;;;;;;;8.53;5.20;;;;;;;27.18;55.56;98838.97;4840361;29;20246;-86
2023/08/16 02:02:27;;;;;;;9.03;5.10;;;;;;;27.05;56.06;98841.56;4840725;29;20181;-86
2023/08/16 02:04:54;;;;;;;9.90;5.80;;;;;;;27.05;56.04;98835.31;4840424;29;20204;-85
2023/08/16 02:07:20;;;;;;;13.60;6.57;;;;;;;26.86;57.07;98838.69;4840475;29;20200;-85
2023/08/16 02:09:47;;;;;;;9.63;5.70;;;;;;;26.73;57.44;98831.25;4824492;29;20237;-85
2023/08/16 02:12:13;;;;;;;9.83;6.07;;;;;;;26.72;57.45;98829.59;4840336;29;20738;-85
2023/08/16 02:14:39;;;;;;;10.97;5.97;;;;;;;26.72;57.40;98826.91;4840706;29;20184;-85
2023/08/16 02:17:06;;;;;;;9.67;5.93;;;;;;;26.73;57.55;98831.25;4840932;29;20326;-85
2023/08/16 02:19:32;;;;;;;11.87;5.87;;;;;;;26.75;57.27;98830.06;4825768;29;20237;-86
2023/08/16 02:21:59;;;;;;;11.17;6.03;;;;;;;26.74;57.58;98823.00;4823339;29;20277;-86
2023/08/16 02:24:25;;;;;;;11.30;6.10;;;;;;;26.69;57.67;98828.13;4838480;29;20185;-86
2023/08/16 02:26:51;;;;;;;9.03;6.27;;;;;;;26.63;58.28;98828.03;4826050;29;20238;-86
2023/08/16 02:29:16;;;;;;;11.30;5.53;;;;;;;26.63;58.23;98814.59;4825812;29;20599;-86
2023/08/16 02:31:43;;;;;;;8.73;5.93;;;;;;;26.51;58.56;98821.50;4826260;29;20219;-87
2023/08/16 02:34:09;;;;;;;8.70;5.97;;;;;;;26.38;59.15;98822.19;4842163;29;20660;-87
2023/08/16 02:36:36;;;;;;;11.00;6.37;;;;;;;26.33;59.29;98819.22;4825783;29;20197;-86
2023/08/16 02:39:04;;;;;;;11.80;6.13;;;;;;;26.30;59.43;98813.38;4819499;29;20220;-85
2023/08/16 02:41:30;;;;;;;9.03;5.70;;;;;;;26.41;58.84;98810.22;4826078;29;20177;-85
2023/08/16 02:43:57;;;;;;;9.67;6.10;;;;;;;26.42;58.90;98810.00;4845548;29;20177;-85
2023/08/16 02:46:24;;;;;;;12.00;6.83;;;;;;;26.36;59.22;98812.63;4845738;29;20204;-85
2023/08/16 02:48:51;;;;;;;11.10;6.40;;;;;;;26.41;59.06;98811.06;4829288;29;20214;-86
2023/08/16 02:51:17;;;;;;;10.03;6.27;;;;;;;26.47;58.76;98810.28;4845420;29;20201;-85
2023/08/16 02:53:44;;;;;;;10.13;6.57;;;;;;;26.43;59.04;98813.53;4845906;29;20563;-86
2023/08/16 02:56:10;;;;;;;9.83;6.40;;;;;;;26.44;58.99;98809.84;4828853;29;20181;-85
2023/08/16 02:58:38;;;;;;;12.93;7.40;;;;;;;26.33;59.20;98813.00;4845444;29;20188;-85
2023/08/16 03:01:04;;;;;;;10.07;6.17;;;;;;;26.31;59.45;98815.88;4845606;29;20177;-85
2023/08/16 03:03:31;;;;;;;13.10;6.97;;;;;;;26.34;59.00;98814.66;4829010;29;20192;-85
2023/08/16 03:05:57;;;;;;;14.60;8.10;;;;;;;26.35;59.32;98819.03;4829439;29;20276;-85
2023/08/16 03:08:22;;;;;;;11.53;5.77;;;;;;;26.47;58.70;98820.19;4845008;29;20691;-85
2023/08/16 03:10:49;;;;;;;9.03;5.93;;;;;;;26.51;58.67;98826.88;4845011;29;20767;-85
2023/08/16 03:13:16;;;;;;;10.70;6.70;;;;;;;26.61;58.61;98830.09;4828783;29;20212;-85
2023/08/16 03:15:41;;;;;;;11.13;6.00;;;;;;;26.65;58.07;98834.88;4845579;29;20181;-85
2023/08/16 03:18:08;;;;;;;9.83;5.93;;;;;;;26.60;58.40;98836.47;4844712;29;20192;-86
2023/08/16 03:20:33;;;;;;;11.10;5.27;;;;;;;26.59;58.71;98832.13;4863293;29;20196;-85
2023/08/16 03:23:00;;;;;;;10.53;5.93;;;;;;;26.68;58.26;98834.50;4846086;29;20188;-85
2023/08/16 03:25:27;;;;;;;10.53;6.07;;;;;;;26.75;58.20;98834.59;4828626;29;20189;-86
2023/08/16 03:27:54;;;;;;;9.77;6.40;;;;;;;26.80;57.92;98834.88;4844947;29;20207;-85
2023/08/16 03:30:20;;;;;;;9.33;5.20;;;;;;;26.82;57.88;98838.22;4844768;29;20209;-85
2023/08/16 03:32:47;;;;;;;11.47;6.00;;;;;;;26.88;58.10;98834.78;4845084;29;20640;-85
2023/08/16 03:35:12;;;;;;;12.10;5.80;;;;;;;26.91;57.56;98828.16;4828541;29;20203;-86
2023/08/16 03:37:38;;;;;;;11.67;5.50;;;;;;;26.81;58.02;98844.59;4826866;29;20185;-85
2023/08/16 03:40:06;;;;;;;9.70;5.70;;;;;;;26.79;58.45;98835.91;4844510;29;20265;-85
2023/08/16 03:42:33;;;;;;;11.70;6.00;;;;;;;26.79;58.25;98833.22;4844463;29;20257;-84
2023/08/16 03:44:59;;;;;;;12.23;5.53;;;;;;;26.93;58.27;98831.50;4844641;29;20185;-85
2023/08/16 03:47:26;;;;;;;11.50;5.70;;;;;;;26.99;57.99;98836.13;4844571;29;20711;-86
2023/08/16 03:49:52;;;;;;;10.03;5.13;;;;;;;27.03;57.95;98835.53;4828601;29;20288;-86
2023/08/16 03:52:19;;;;;;;10.47;5.50;;;;;;;27.08;57.54;98837.63;4844438;29;20245;-85
2023/08/16 03:54:46;;;;;;;10.00;5.83;;;;;;;27.13;57.33;98841.41;4827335;29;20181;-86
2023/08/16 03:57:11;;;;;;;11.53;5.17;;;;;;;27.14;57.38;98836.88;4828442;29;20277;-85
2023/08/16 03:59:37;;;;;;;9.33;5.30;;;;;;;27.25;57.37;98836.38;4844377;29;20264;-85
2023/08/16 04:02:04;;;;;;;7.67;4.67;;;;;;;27.27;56.82;98840.53;4844369;29;20647;-85
2023/08/16 04:04:31;;;;;;;11.87;5.47;;;;;;;27.26;57.17;98838.00;4828124;29;20196;-85
2023/08/16 04:06:56;;;;;;;7.63;5.07;;;;;;;27.20;57.45;98842.31;4844682;29;20181;-85
2023/08/16 04:09:23;;;;;;;10.33;5.47;;;;;;;27.21;57.26;98851.22;4844491;29;20181;-86
2023/08/16 04:11:50;;;;;;;13.20;5.80;;;;;;;27.22;57.18;98848.34;4828146;29;20212;-85
2023/08/16 04:14:17;;;;;;;8.87;5.20;;;;;;;27.15;57.56;98852.00;4844341;29;20185;-85
2023/08/16 04:16:43;;;;;;;9.97;5.20;;;;;;;27.06;57.74;98850.47;4844041;29;20515;-86
2023/08/16 04:19:08;;;;;;;7.63;4.73;;;;;;;27.04;57.96;98853.34;4843979;29;20229;-85
2023/08/16 04:21:34;;;;;;;8.93;5.40;;;;;;;27.13;57.68;98852.19;4839939;29;20209;-86
2023/08/16 04:24:01;;;;;;;7.90;4.93;;;;;;;27.11;57.66;98845.34;4835348;29;20193;-85
2023/08/16 04:26:26;;;;;;;9.37;6.10;;;;;;;27.17;57.57;98853.47;4843776;29;20185;-86
2023/08/16 04:28:53;;;;;;;9.50;5.53;;;;;;;27.26;57.24;98863.06;4844149;29;20273;-86
2023/08/16 04:31:19;;;;;;;9.27;4.93;;;;;;;27.32;57.09;98858.78;4843466;29;20555;-86
2023/08/16 04:33:46;;;;;;;10.10;4.43;;;;;;;27.41;56.57;98855.78;4843522;29;20197;-86
2023/08/16 04:36:13;;;;;;;13.38;5.88;;;;;;;27.46;56.63;98859.75;4843903;29;20188;-86
2023/08/16 04:38:39;;;;;;;8.80;4.90;;;;;;;27.43;56.50;98864.50;4843920;29;20192;-86
2023/08/16 04:41:06;;;;;;;11.23;5.77;;;;;;;27.38;56.80;98864.19;4827821;29;20222;-86
2023/08/16 04:43:33;;;;;;;13.03;6.53;;;;;;;27.41;56.86;98869.25;4844045;29;20177;-86
2023/08/16 04:45:59;;;;;;;7.85;5.05;;;;;;;27.42;56.55;98870.91;4843432;29;20211;-86
2023/08/16 04:48:26;;;;;;;11.40;5.43;;;;;;;27.49;56.63;98862.88;4843985;29;20209;-86
2023/08/16 04:50:52;;;;;;;13.40;5.70;;;;;;;27.51;56.37;98868.09;4827237;29;20295;-85
2023/08/16 04:53:19;;;;;;;8.52;5.55;;;;;;;27.58;56.66;98863.56;4843463;29;20174;-86
2023/08/16 04:55:46;;;;;;;10.02;4.85;;;;;;;27.64;56.23;98860.94;4843368;29;20184;-86
2023/08/16 04:58:13;;;;;;;8.63;4.50;;;;;;;27.56;56.32;98860.25;4843539;29;20276;-86
2023/08/16 05:00:40;;;;;;;7.43;5.10;;;;;;;27.67;56.11;98862.41;4842392;29;20301;-86
2023/08/16 05:03:06;;;;;;;10.38;5.03;;;;;;;27.68;56.03;98864.06;4843265;29;20654;-86
2023/08/16 05:05:33;;;;;;;10.07;4.63;;;;;;;27.63;56.29;98864.66;4842925;29;20240;-85
2023/08/16 05:07:59;;;;;;;7.80;4.70;;;;;;;27.71;55.78;98864.50;4827143;29;20173;-86
2023/08/16 05:10:25;;;;;;;10.57;4.97;;;;;;;27.75;55.44;98863.09;4827073;29;20174;-86
2023/08/16 05:12:51;;;;;;;9.25;5.15;;;;;;;27.74;55.62;98869.50;4843111;29;20325;-86
2023/08/16 05:15:17;;;;;;;9.07;4.70;;;;;;;27.84;55.28;98869.16;4843041;29;20196;-86
2023/08/16 05:17:44;;;;;;;7.60;4.47;;;;;;;27.81;55.90;98866.84;4843034;29;20631;-86
2023/08/16 05:20:11;;;;;;;8.48;4.75;;;;;;;27.84;55.51;98870.00;4843275;29;20201;-86
2023/08/16 05:22:37;;;;;;;8.77;4.53;;;;;;;27.80;55.53;98871.44;4827028;29;20651;-85
2023/08/16 05:25:04;;;;;;;10.63;4.43;;;;;;;27.70;55.52;98876.31;4826930;29;20253;-86
2023/08/16 05:27:31;;;;;;;8.77;4.78;;;;;;;27.72;56.21;98868.88;4842881;29;20241;-86
2023/08/16 05:29:58;;;;;;;9.00;4.82;;;;;;;27.76;55.93;98874.69;4826850;29;20173;-86
2023/08/16 05:32:24;;;;;;;7.85;4.60;;;;;;;27.79;55.80;98872.44;4842652;29;20209;-86
2023/08/16 05:34:53;;;;;;;10.02;4.88;;;;;;;27.72;55.95;98876.13;4826754;29;20189;-85
2023/08/16 05:37:20;;;;;;;8.15;4.90;;;;;;;27.81;55.91;98874.94;4842984;29;20665;-86
2023/08/16 05:39:47;;;;;;;8.75;5.00;;;;;;;27.89;55.25;98872.94;4842853;29;20177;-86
2023/08/16 05:42:13;;;;;;;9.20;4.97;;;;;;;27.92;55.78;98866.31;4842654;29;20177;-86
2023/08/16 05:44:39;;;;;;;6.95;4.15;;;;;;;28.01;55.15;98870.53;4843455;29;20245;-86
2023/08/16 05:47:06;;;;;;;10.40;5.07;;;;;;;27.95;55.09;98872.16;4841544;29;20556;-86
2023/08/16 05:49:31;;;;;;;7.10;4.60;;;;;;;27.95;55.15;98874.84;4825715;29;20192;-86
2023/08/16 05:51:58;;;;;;;8.00;4.70;;;;;;;28.06;55.04;98873.50;4816352;29;20213;-86
2023/08/16 05:54:24;;;;;;;11.13;5.10;;;;;;;28.14;55.19;98869.81;4824477;29;20191;-86
2023/08/16 05:56:51;;;;;;;9.60;4.53;;;;;;;28.00;55.55;98875.09;4819779;29;20200;-86
2023/08/16 05:59:17;;;;;;;9.10;4.82;;;;;;;28.13;55.22;98874.34;4826520;29;20264;-86
2023/08/16 06:01:43;;;;;;;9.18;4.90;;;;;;;28.23;54.74;98869.44;4837585;29;20548;-86
2023/08/16 06:04:09;;;;;;;10.63;5.40;;;;;;;28.31;54.93;98877.34;4827156;29;20198;-86
2023/08/16 06:06:36;;;;;;;13.55;5.03;;;;;;;28.08;55.17;98882.22;4825867;29;20700;-86
2023/08/16 06:09:02;;;;;;;8.93;4.78;;;;;;;28.15;54.83;98864.19;4838379;29;20186;-86
2023/08/16 06:11:28;;;;;;;11.57;5.28;;;;;;;28.27;55.10;98876.09;4808144;29;20571;-86
2023/08/16 06:13:55;;;;;;;8.38;4.80;;;;;;;28.37;54.21;98871.19;4824532;29;20182;-86
2023/08/16 06:16:22;;;;;;;8.45;4.32;;;;;;;28.40;54.61;98878.03;4841360;29;20184;-86
2023/08/16 06:18:49;;;;;;;8.15;4.35;;;;;;;28.35;54.66;98873.25;4829605;29;20204;-86
2023/08/16 06:21:14;;;;;;;10.38;5.00;;;;;;;28.46;53.95;98885.28;4829225;29;20189;-87
2023/08/16 06:23:42;;;;;;;12.63;4.70;;;;;;;28.48;54.02;98881.41;4830100;29;20192;-86
2023/08/16 06:26:07;;;;;;;8.57;5.28;;;;;;;28.46;54.01;98878.03;4828722;29;20193;-86
2023/08/16 06:28:34;;;;;;;9.77;4.50;;;;;;;28.49;53.94;98883.03;4829372;29;20207;-87
2023/08/16 06:31:00;;;;;;;10.40;5.47;;;;;;;28.54;53.55;98879.72;4829832;29;20232;-87
2023/08/16 06:33:27;;;;;;;7.50;4.43;;;;;;;28.53;53.65;98881.63;4829819;29;20545;-87
2023/08/16 06:35:53;;;;;;;8.80;4.50;;;;;;;28.62;53.66;98879.59;4829523;29;20333;-87
2023/08/16 06:38:20;;;;;;;8.25;4.72;;;;;;;28.66;53.63;98875.47;4845701;29;20615;-87
2023/08/16 06:40:47;;;;;;;8.77;4.68;;;;;;;28.78;53.51;98884.63;4825668;29;20196;-87
2023/08/16 06:43:14;;;;;;;8.82;4.65;;;;;;;28.86;52.87;98878.22;4827053;29;20261;-86
2023/08/16 06:45:40;;;;;;;9.10;4.53;;;;;;;28.92;52.20;98877.41;4833235;29;20635;-87
2023/08/16 06:48:06;;;;;;;7.05;4.20;;;;;;;29.03;52.36;98882.22;4845576;29;20187;-87
2023/08/16 06:50:34;;;;;;;7.95;4.50;;;;;;;29.08;51.55;98879.75;4829094;29;20185;-86
2023/08/16 06:53:00;;;;;;;8.70;4.32;;;;;;;29.14;51.19;98884.34;4829165;29;20277;-86
2023/08/16 06:55:26;;;;;;;7.68;4.60;;;;;;;29.10;51.53;98883.06;4845653;29;20647;-86
2023/08/16 06:57:52;;;;;;;9.15;4.75;;;;;;;29.09;51.74;98876.00;4845405;29;20185;-87
2023/08/16 07:00:17;;;;;;;11.15;4.47;;;;;;;29.19;51.64;98882.66;4829038;29;20181;-86
2023/08/16 07:02:43;;;;;;;9.18;5.07;;;;;;;29.17;51.89;98875.81;4843979;29;20185;-86
2023/08/16 07:05:12;;;;;;;7.15;4.70;;;;;;;29.15;51.83;98883.28;4843650;29;20624;-85
2023/08/16 07:07:37;;;;;;;8.85;5.18;;;;;;;29.24;52.26;98874.00;4827085;29;20193;-86
2023/08/16 07:10:04;;;;;;;8.50;4.90;;;;;;;29.38;51.63;98870.25;4827266;29;20200;-86
2023/08/16 07:12:29;;;;;;;7.88;4.32;;;;;;;29.44;51.85;98874.84;4827297;29;20273;-87
2023/08/16 07:14:56;;;;;;;8.27;4.88;;;;;;;29.55;51.87;98876.09;4827605;29;20181;-86
2023/08/16 07:17:23;;;;;;;9.23;4.78;;;;;;;29.71;50.46;98871.09;4844587;29;20264;-87
2023/08/16 07:19:52;;;;;;;8.40;4.22;;;;;;;29.80;50.15;98877.13;4828568;29;20251;-87
2023/08/16 07:22:20;;;;;;;9.65;4.22;;;;;;;29.90;49.12;98874.03;4829051;29;20204;-87
2023/08/16 07:24:46;;;;;;;8.85;4.00;;;;;;;29.95;49.11;98869.66;4828643;29;20284;-87
2023/08/16 07:27:13;;;;;;;10.73;3.83;;;;;;;29.99;49.49;98878.16;4844989;29;20193;-87
2023/08/16 07:29:38;;;;;;;7.18;3.95;;;;;;;30.02;49.86;98880.44;4828605;29;20185;-87
2023/08/16 07:32:05;;;;;;;7.47;3.97;;;;;;;29.87;50.29;98885.25;4844685;29;20276;-87
2023/08/16 07:34:31;;;;;;;9.70;4.22;;;;;;;29.94;49.07;98876.09;4828629;29;20284;-87
2023/08/16 07:36:56;;;;;;;8.70;4.57;;;;;;;30.08;48.33;98876.91;4845156;29;20188;-90
2023/08/16 07:39:24;;;;;;;9.65;4.90;;;;;;;30.17;48.51;98881.84;4844884;29;20181;-91
2023/08/16 07:41:51;;;;;;;10.02;4.03;;;;;;;30.22;48.15;98873.94;4845401;29;20204;-91
2023/08/16 07:44:18;;;;;;;7.60;3.90;;;;;;;30.11;48.73;98876.47;4844914;29;20181;-92
2023/08/16 07:46:44;;;;;;;9.80;4.43;;;;;;;30.15;48.27;98883.09;4844768;29;20192;-91
2023/08/16 07:49:11;;;;;;;7.95;3.92;;;;;;;30.18;48.61;98877.28;4845169;29;20528;-91
2023/08/16 07:51:36;;;;;;;8.35;4.30;;;;;;;30.29;47.83;98880.16;4845084;29;20201;-89
2023/08/16 07:54:03;;;;;;;8.07;3.90;;;;;;;30.34;48.08;98883.06;4828763;29;20198;-91
2023/08/16 07:56:32;;;;;;;7.28;3.83;;;;;;;30.42;47.72;98880.13;4828591;29;20177;-90
2023/08/16 07:58:59;;;;;;;13.43;4.47;;;;;;;30.48;46.43;98883.88;4844685;29;20181;-92
2023/08/16 08:01:24;;;;;;;7.90;4.53;;;;;;;30.46;46.68;98885.13;4828398;29;20549;-90
2023/08/16 08:03:50;;;;;;;9.77;3.78;;;;;;;30.46;47.50;98885.97;4828524;29;20180;-91
2023/08/16 08:06:17;;;;;;;8.70;4.45;;;;;;;30.48;47.57;98889.28;4844644;29;20197;-92
2023/08/16 08:08:47;;;;;;;10.68;4.53;;;;;;;30.43;47.41;98880.97;4828249;29;20646;-91
2023/08/16 08:11:12;;;;;;;11.80;4.82;;;;;;;30.54;47.83;98877.59;4844375;29;20238;-86
2023/08/16 08:13:39;;;;;;;8.88;4.35;;;;;;;30.58;46.27;98884.28;4827903;29;20181;-86
2023/08/16 08:16:07;;;;;;;8.77;4.20;;;;;;;30.64;46.43;98887.97;4843969;29;20252;-86
2023/08/16 08:18:34;;;;;;;13.98;4.95;;;;;;;30.71;46.11;98892.34;4827961;29;20181;-86
2023/08/16 08:21:01;;;;;;;8.52;3.95;;;;;;;30.76;46.45;98880.84;4843955;29;20629;-86
2023/08/16 08:23:28;;;;;;;7.72;4.15;;;;;;;30.81;46.59;98881.03;4844253;29;20214;-86
2023/08/16 08:25:54;;;;;;;6.82;4.03;;;;;;;30.89;46.25;98881.63;4844207;29;20185;-86
2023/08/16 08:28:22;;;;;;;13.23;4.72;;;;;;;31.01;46.04;98887.19;4843767;29;20214;-85
2023/08/16 08:30:49;;;;;;;12.20;4.43;;;;;;;31.07;46.54;98882.78;4843792;29;20785;-86
2023/08/16 08:33:16;;;;;;;10.65;4.05;;;;;;;31.19;46.66;98890.00;4843749;29;20181;-86
2023/08/16 08:35:43;;;;;;;8.05;4.00;;;;;;;31.29;44.72;98887.63;4844160;29;20521;-86
2023/08/16 08:38:09;;;;;;;8.02;4.28;;;;;;;31.43;45.47;98882.94;4843708;29;20188;-85
2023/08/16 08:40:37;;;;;;;8.07;3.88;;;;;;;31.58;45.01;98886.19;4827142;29;20623;-85
2023/08/16 08:43:06;;;;;;;8.60;4.03;;;;;;;31.63;44.05;98880.94;4843891;29;20188;-86
2023/08/16 08:45:34;;;;;;;7.63;4.10;;;;;;;31.84;44.38;98880.53;4843810;29;20181;-86
2023/08/16 08:48:01;;;;;;;8.48;4.00;;;;;;;32.07;43.79;98869.94;4843539;29;20185;-86
2023/08/16 08:50:32;;;;;;;10.13;4.55;;;;;;;32.31;43.64;98873.66;4843342;29;20216;-86
2023/08/16 08:53:00;;;;;;;9.07;4.25;;;;;;;32.32;42.48;98874.44;4843711;29;20181;-86
2023/08/16 08:55:32;;;;;;;8.23;3.33;;;;;;;32.36;42.20;98870.25;4842310;29;20192;-88
2023/08/16 08:58:01;;;;;;;12.07;3.28;;;;;;;32.50;42.70;98869.84;4838190;29;20193;-86
2023/08/16 09:00:30;;;;;;;5.22;3.42;;;;;;;32.66;41.75;98874.69;4833435;29;20188;-87
2023/08/16 09:02:59;;;;;;;7.55;3.75;;;;;;;32.69;41.24;98868.81;4810517;29;20185;-86
2023/08/16 09:05:25;;;;;;;9.07;3.97;;;;;;;32.81;41.90;98861.53;4811427;29;20200;-87
2023/08/16 09:07:52;;;;;;;10.25;4.25;;;;;;;32.91;42.00;98861.00;4826491;29;20258;-86
2023/08/16 09:10:19;;;;;;;7.38;3.90;;;;;;;32.81;41.55;98855.28;4842680;29;20192;-87
2023/08/16 09:12:46;;;;;;;7.25;3.58;;;;;;;32.96;41.79;98863.84;4826713;29;20726;-87
2023/08/16 09:15:14;;;;;;;8.15;4.15;;;;;;;33.12;41.62;98860.53;4808364;29;20190;-86
2023/08/16 09:17:41;;;;;;;6.55;3.22;;;;;;;33.20;41.56;98848.50;4824512;29;20205;-87
2023/08/16 09:20:08;;;;;;;6.20;3.72;;;;;;;33.19;40.88;98844.94;4841279;29;20289;-88
2023/08/16 09:22:35;;;;;;;11.85;4.63;;;;;;;33.37;40.51;98846.75;4826809;29;20185;-87
2023/08/16 09:25:10;;;;;;;8.55;4.30;;;;;;;33.49;40.48;98846.78;4826449;29;20193;-88
2023/08/16 09:27:40;;;;;;;11.48;3.95;;;;;;;33.57;40.44;98835.59;4826486;29;20177;-87
2023/08/16 09:30:12;;;;;;;9.05;4.00;;;;;;;33.89;41.29;98837.69;4842284;29;20189;-88
2023/08/16 09:32:38;;;;;;;7.43;3.67;;;;;;;34.26;40.40;98838.28;4842308;29;20540;-88
2023/08/16 09:35:05;;;;;;;6.35;3.70;;;;;;;34.48;38.58;98836.56;4842160;29;20192;-88
2023/08/16 09:37:32;;;;;;;8.55;4.57;;;;;;;34.68;38.94;98828.00;4842386;29;20177;-87
2023/08/16 09:40:00;;;;;;;7.38;4.40;;;;;;;34.59;38.31;98832.19;4839406;29;20201;-88
2023/08/16 09:42:34;;;;;;;7.22;3.85;;;;;;;34.66;39.09;98829.31;4826279;29;20646;-88
2023/08/16 09:45:01;;;;;;;6.35;3.97;;;;;;;34.59;38.52;98832.19;4842028;29;20263;-87
2023/08/16 09:47:29;;;;;;;6.10;3.97;;;;;;;34.71;38.86;98832.13;4826496;29;20196;-88
2023/08/16 09:49:57;;;;;;;10.77;4.53;;;;;;;34.87;38.16;98818.56;4841069;29;20197;-88
2023/08/16 09:52:24;;;;;;;8.30;3.78;;;;;;;35.02;38.39;98837.06;4839539;29;20270;-88
2023/08/16 09:54:53;;;;;;;8.77;4.35;;;;;;;34.92;38.02;98826.00;4838884;29;20272;-87
2023/08/16 09:57:21;;;;;;;7.43;4.43;;;;;;;34.92;37.71;98831.44;4840636;29;20644;-87
2023/08/16 09:59:48;;;;;;;11.00;3.70;;;;;;;35.19;37.45;98827.06;4823978;29;20193;-87
2023/08/16 10:02:14;;;;;;;6.43;4.03;;;;;;;35.29;38.08;98826.41;4840290;29;20650;-88
2023/08/16 10:04:41;;;;;;;14.15;4.50;;;;;;;35.33;38.00;98822.09;4824308;29;20268;-87
2023/08/16 10:07:08;;;;;;;9.45;4.22;;;;;;;35.47;37.16;98824.28;4841930;29;20187;-87
2023/08/16 10:09:36;;;;;;;6.40;4.15;;;;;;;35.44;37.39;98830.22;4842307;29;20196;-87
2023/08/16 10:12:06;;;;;;;8.98;5.13;;;;;;;35.62;37.05;98826.44;4840045;29;20293;-88
2023/08/16 10:14:33;;;;;;;6.82;3.95;;;;;;;35.57;37.76;98824.47;4822227;29;20968;-87
2023/08/16 10:17:01;;;;;;;8.55;4.28;;;;;;;35.56;37.54;98817.34;4827812;29;20645;-87
2023/08/16 10:19:32;;;;;;;6.57;4.05;;;;;;;35.69;37.46;98825.19;4833472;29;20189;-87
2023/08/16 10:21:59;;;;;;;11.45;4.50;;;;;;;35.87;37.45;98826.00;4827892;29;20224;-87
2023/08/16 10:24:33;;;;;;;10.75;4.32;;;;;;;36.06;36.38;98821.94;4836463;29;20236;-88
2023/08/16 10:27:00;;;;;;;11.65;5.50;;;;;;;35.83;37.34;98814.75;4824333;29;20184;-89
2023/08/16 10:29:27;;;;;;;11.70;5.85;;;;;;;35.72;38.95;98816.50;4822268;29;20192;-87
2023/08/16 10:31:53;;;;;;;6.43;4.05;;;;;;;35.84;37.10;98812.84;4817293;29;20209;-87
2023/08/16 10:34:21;;;;;;;9.77;4.30;;;;;;;35.93;38.26;98801.25;4824637;29;20197;-87
2023/08/16 10:36:48;;;;;;;9.43;4.60;;;;;;;36.01;37.25;98808.25;4824652;29;20569;-87
2023/08/16 10:39:22;;;;;;;8.85;4.20;;;;;;;35.96;37.78;98800.75;4825575;29;20608;-87
2023/08/16 10:41:53;;;;;;;8.63;3.80;;;;;;;35.45;38.25;98799.16;4841804;29;20153;-88
2023/08/16 10:44:25;;;;;;;5.97;3.92;;;;;;;35.45;38.28;98801.88;4834393;29;20189;-86
2023/08/16 10:46:51;;;;;;;12.43;4.20;;;;;;;35.66;38.33;98792.97;4830618;29;20588;-87
2023/08/16 10:49:20;;;;;;;7.38;3.67;;;;;;;35.61;38.51;98790.19;4832622;29;20695;-87
2023/08/16 10:51:52;;;;;;;6.22;3.10;;;;;;;35.33;38.65;98790.22;4825356;29;20626;-87
2023/08/16 10:54:31;;;;;;;7.88;3.78;;;;;;;34.92;38.84;98787.88;4841507;29;20271;-87
2023/08/16 10:57:06;;;;;;;6.53;2.83;;;;;;;34.91;39.43;98783.47;4825721;29;20185;-87
2023/08/16 10:59:41;;;;;;;9.20;3.42;;;;;;;35.23;38.42;98775.59;4841692;29;20252;-87
2023/08/16 11:02:15;;;;;;;12.02;3.95;;;;;;;35.64;37.60;98770.56;4825579;29;20181;-87
2023/08/16 11:04:42;;;;;;;7.00;3.53;;;;;;;35.96;36.46;98770.75;4844974;29;20229;-88
2023/08/16 11:07:12;;;;;;;10.73;3.83;;;;;;;35.93;36.62;98776.69;4844660;29;20197;-87
2023/08/16 11:09:39;;;;;;;5.82;3.65;;;;;;;36.02;37.15;98768.94;4828538;29;20228;-87
2023/08/16 11:12:06;;;;;;;7.30;3.08;;;;;;;35.77;36.97;98761.22;4844783;29;20209;-87
2023/08/16 11:14:35;;;;;;;5.88;3.10;;;;;;;35.36;38.23;98770.66;4840186;29;20267;-87
2023/08/16 11:17:02;;;;;;;9.05;3.25;;;;;;;35.73;38.00;98777.25;4840200;29;20189;-86
2023/08/16 11:19:28;;;;;;;5.22;3.20;;;;;;;36.08;37.12;98760.56;4844216;29;20712;-87
2023/08/16 11:22:01;;;;;;;7.82;3.22;;;;;;;36.27;36.14;98758.31;4828289;29;20594;-87
2023/08/16 11:24:28;;;;;;;7.20;3.20;;;;;;;36.15;35.83;98760.38;4842944;29;20185;-86
2023/08/16 11:26:53;;;;;;;6.15;3.13;;;;;;;36.07;35.48;98756.19;4826233;29;20723;-86
2023/08/16 11:29:20;;;;;;;7.18;3.22;;;;;;;36.16;36.41;98749.22;4838788;29;20280;-87
2023/08/16 11:31:46;;;;;;;6.65;3.15;;;;;;;36.71;35.90;98746.31;4835580;29;20209;-87